sensor_id;sensor_type;location;lat;lon;timestamp;P1;P2;P0
75946;PMS5003;64628;50.104;14.614;2023-04-24T00:01:03;38;35;
75946;PMS5003;64628;50.104;14.614;2023-04-24T00:03:28;43;35;
75946;PMS5003;64628;50.104;14.614;2023-04-24T00:05:53;40;31;
75946;PMS5003;64628;50.104;14.614;2023-04-24T00:08:19;42;37;
75946;PMS5003;64628;50.104;14.614;2023-04-24T00:10:45;34;34;
75946;PMS5003;64628;50.104;14.614;2023-04-24T00:13:10;34;32;
75946;PMS5003;64628;50.104;14.614;2023-04-24T00:15:35;36;36;
75946;PMS5003;64628;50.104;14.614;2023-04-24T00:18:01;38;32;
75946;PMS5003;64628;50.104;14.614;2023-04-24T00:20:26;36;33;
75946;PMS5003;64628;50.104;14.614;2023-04-24T00:22:52;30;28;
75946;PMS5003;64628;50.104;14.614;2023-04-24T00:25:17;27;27;
75946;PMS5003;64628;50.104;14.614;2023-04-24T00:27:43;29;28;
75946;PMS5003;64628;50.104;14.614;2023-04-24T00:30:09;24;24;
75946;PMS5003;64628;50.104;14.614;2023-04-24T00:32:34;22;22;
75946;PMS5003;64628;50.104;14.614;2023-04-24T00:35:00;29;27;
75946;PMS5003;64628;50.104;14.614;2023-04-24T00:37:25;29;27;
75946;PMS5003;64628;50.104;14.614;2023-04-24T00:39:51;30;27;
75946;PMS5003;64628;50.104;14.614;2023-04-24T00:42:16;28;26;
75946;PMS5003;64628;50.104;14.614;2023-04-24T00:44:41;35;29;
75946;PMS5003;64628;50.104;14.614;2023-04-24T00:47:07;28;25;
75946;PMS5003;64628;50.104;14.614;2023-04-24T00:49:32;28;23;
75946;PMS5003;64628;50.104;14.614;2023-04-24T00:51:57;33;29;
75946;PMS5003;64628;50.104;14.614;2023-04-24T00:54:22;20;19;
75946;PMS5003;64628;50.104;14.614;2023-04-24T00:56:48;28;27;
75946;PMS5003;64628;50.104;14.614;2023-04-24T00:59:13;25;25;
75946;PMS5003;64628;50.104;14.614;2023-04-24T01:01:39;21;21;
75946;PMS5003;64628;50.104;14.614;2023-04-24T01:04:03;27;21;
75946;PMS5003;64628;50.104;14.614;2023-04-24T01:06:29;21;17;
75946;PMS5003;64628;50.104;14.614;2023-04-24T01:08:54;21;19;
75946;PMS5003;64628;50.104;14.614;2023-04-24T01:11:20;18;15;
75946;PMS5003;64628;50.104;14.614;2023-04-24T01:13:45;19;14;
75946;PMS5003;64628;50.104;14.614;2023-04-24T01:16:10;20;15;
75946;PMS5003;64628;50.104;14.614;2023-04-24T01:21:02;17;14;
75946;PMS5003;64628;50.104;14.614;2023-04-24T01:23:26;16;15;
75946;PMS5003;64628;50.104;14.614;2023-04-24T01:25:52;14;14;
75946;PMS5003;64628;50.104;14.614;2023-04-24T01:28:17;18;18;
75946;PMS5003;64628;50.104;14.614;2023-04-24T01:30:42;14;12;
75946;PMS5003;64628;50.104;14.614;2023-04-24T01:33:07;13;13;
75946;PMS5003;64628;50.104;14.614;2023-04-24T01:35:33;9;9;
75946;PMS5003;64628;50.104;14.614;2023-04-24T01:37:58;12;11;
75946;PMS5003;64628;50.104;14.614;2023-04-24T01:40:23;6;6;
75946;PMS5003;64628;50.104;14.614;2023-04-24T01:42:49;5;4;
75946;PMS5003;64628;50.104;14.614;2023-04-24T01:45:14;3;3;
75946;PMS5003;64628;50.104;14.614;2023-04-24T01:47:39;4;4;
75946;PMS5003;64628;50.104;14.614;2023-04-24T01:50:05;6;5;
75946;PMS5003;64628;50.104;14.614;2023-04-24T01:52:30;7;5;
75946;PMS5003;64628;50.104;14.614;2023-04-24T01:54:55;3;3;
75946;PMS5003;64628;50.104;14.614;2023-04-24T01:57:20;5;4;
75946;PMS5003;64628;50.104;14.614;2023-04-24T01:59:46;6;4;
75946;PMS5003;64628;50.104;14.614;2023-04-24T02:02:11;5;5;
75946;PMS5003;64628;50.104;14.614;2023-04-24T02:04:37;4;3;
75946;PMS5003;64628;50.104;14.614;2023-04-24T02:07:02;5;4;
75946;PMS5003;64628;50.104;14.614;2023-04-24T02:09:27;3;3;
75946;PMS5003;64628;50.104;14.614;2023-04-24T02:11:52;7;4;
75946;PMS5003;64628;50.104;14.614;2023-04-24T02:14:18;5;5;
75946;PMS5003;64628;50.104;14.614;2023-04-24T02:16:43;5;5;
75946;PMS5003;64628;50.104;14.614;2023-04-24T02:19:08;5;5;
75946;PMS5003;64628;50.104;14.614;2023-04-24T02:21:34;3;3;
75946;PMS5003;64628;50.104;14.614;2023-04-24T02:23:59;3;3;
75946;PMS5003;64628;50.104;14.614;2023-04-24T02:26:24;4;4;
75946;PMS5003;64628;50.104;14.614;2023-04-24T02:28:49;3;3;
75946;PMS5003;64628;50.104;14.614;2023-04-24T02:31:15;6;4;
75946;PMS5003;64628;50.104;14.614;2023-04-24T02:33:40;3;3;
75946;PMS5003;64628;50.104;14.614;2023-04-24T02:36:05;4;4;
75946;PMS5003;64628;50.104;14.614;2023-04-24T02:38:31;4;4;
75946;PMS5003;64628;50.104;14.614;2023-04-24T02:40:56;3;3;
75946;PMS5003;64628;50.104;14.614;2023-04-24T02:43:21;4;3;
75946;PMS5003;64628;50.104;14.614;2023-04-24T02:45:47;4;4;
75946;PMS5003;64628;50.104;14.614;2023-04-24T02:48:12;4;4;
75946;PMS5003;64628;50.104;14.614;2023-04-24T02:50:37;3;3;
75946;PMS5003;64628;50.104;14.614;2023-04-24T02:53:03;7;6;
75946;PMS5003;64628;50.104;14.614;2023-04-24T02:55:28;2;2;
75946;PMS5003;64628;50.104;14.614;2023-04-24T02:57:53;4;4;
75946;PMS5003;64628;50.104;14.614;2023-04-24T03:00:19;4;4;
75946;PMS5003;64628;50.104;14.614;2023-04-24T03:02:44;5;4;
75946;PMS5003;64628;50.104;14.614;2023-04-24T03:05:09;8;6;
75946;PMS5003;64628;50.104;14.614;2023-04-24T03:07:34;4;4;
75946;PMS5003;64628;50.104;14.614;2023-04-24T03:09:59;7;6;
75946;PMS5003;64628;50.104;14.614;2023-04-24T03:12:25;6;5;
75946;PMS5003;64628;50.104;14.614;2023-04-24T03:14:50;4;4;
75946;PMS5003;64628;50.104;14.614;2023-04-24T03:17:16;5;3;
75946;PMS5003;64628;50.104;14.614;2023-04-24T03:19:41;7;5;
75946;PMS5003;64628;50.104;14.614;2023-04-24T03:22:06;4;4;
75946;PMS5003;64628;50.104;14.614;2023-04-24T03:24:31;4;4;
75946;PMS5003;64628;50.104;14.614;2023-04-24T03:26:57;11;5;
75946;PMS5003;64628;50.104;14.614;2023-04-24T03:29:22;6;4;
75946;PMS5003;64628;50.104;14.614;2023-04-24T03:31:47;10;6;
75946;PMS5003;64628;50.104;14.614;2023-04-24T03:34:13;7;5;
75946;PMS5003;64628;50.104;14.614;2023-04-24T03:36:38;5;4;
75946;PMS5003;64628;50.104;14.614;2023-04-24T03:39:03;4;4;
75946;PMS5003;64628;50.104;14.614;2023-04-24T03:41:28;6;5;
75946;PMS5003;64628;50.104;14.614;2023-04-24T03:43:55;4;4;
75946;PMS5003;64628;50.104;14.614;2023-04-24T03:46:20;6;6;
75946;PMS5003;64628;50.104;14.614;2023-04-24T03:48:45;7;6;
75946;PMS5003;64628;50.104;14.614;2023-04-24T03:51:10;4;4;
75946;PMS5003;64628;50.104;14.614;2023-04-24T03:53:36;10;7;
75946;PMS5003;64628;50.104;14.614;2023-04-24T03:56:01;7;6;
75946;PMS5003;64628;50.104;14.614;2023-04-24T03:58:26;5;5;
75946;PMS5003;64628;50.104;14.614;2023-04-24T04:00:52;8;7;
75946;PMS5003;64628;50.104;14.614;2023-04-24T04:03:17;8;5;
75946;PMS5003;64628;50.104;14.614;2023-04-24T04:05:42;5;4;
75946;PMS5003;64628;50.104;14.614;2023-04-24T04:08:07;7;6;
75946;PMS5003;64628;50.104;14.614;2023-04-24T04:10:33;10;6;
75946;PMS5003;64628;50.104;14.614;2023-04-24T04:12:58;4;4;
75946;PMS5003;64628;50.104;14.614;2023-04-24T04:15:23;5;4;
75946;PMS5003;64628;50.104;14.614;2023-04-24T04:17:49;7;6;
75946;PMS5003;64628;50.104;14.614;2023-04-24T04:20:14;5;5;
75946;PMS5003;64628;50.104;14.614;2023-04-24T04:22:39;8;7;
75946;PMS5003;64628;50.104;14.614;2023-04-24T04:25:05;7;5;
75946;PMS5003;64628;50.104;14.614;2023-04-24T04:27:30;6;6;
75946;PMS5003;64628;50.104;14.614;2023-04-24T04:29:55;8;7;
75946;PMS5003;64628;50.104;14.614;2023-04-24T04:32:21;6;6;
75946;PMS5003;64628;50.104;14.614;2023-04-24T04:34:47;5;5;
75946;PMS5003;64628;50.104;14.614;2023-04-24T04:37:12;7;6;
75946;PMS5003;64628;50.104;14.614;2023-04-24T04:39:38;7;7;
75946;PMS5003;64628;50.104;14.614;2023-04-24T04:42:03;7;7;
75946;PMS5003;64628;50.104;14.614;2023-04-24T04:44:28;6;6;
75946;PMS5003;64628;50.104;14.614;2023-04-24T04:46:54;6;6;
75946;PMS5003;64628;50.104;14.614;2023-04-24T04:49:19;7;7;
75946;PMS5003;64628;50.104;14.614;2023-04-24T04:51:44;13;13;
75946;PMS5003;64628;50.104;14.614;2023-04-24T04:54:10;13;13;
75946;PMS5003;64628;50.104;14.614;2023-04-24T04:56:36;14;14;
75946;PMS5003;64628;50.104;14.614;2023-04-24T04:59:01;15;14;
75946;PMS5003;64628;50.104;14.614;2023-04-24T05:01:26;14;13;
75946;PMS5003;64628;50.104;14.614;2023-04-24T05:03:52;17;16;
75946;PMS5003;64628;50.104;14.614;2023-04-24T05:06:17;15;15;
75946;PMS5003;64628;50.104;14.614;2023-04-24T05:08:42;15;14;
75946;PMS5003;64628;50.104;14.614;2023-04-24T05:11:07;9;8;
75946;PMS5003;64628;50.104;14.614;2023-04-24T05:13:33;9;6;
75946;PMS5003;64628;50.104;14.614;2023-04-24T05:15:58;9;7;
75946;PMS5003;64628;50.104;14.614;2023-04-24T05:18:23;8;7;
75946;PMS5003;64628;50.104;14.614;2023-04-24T05:20:49;6;6;
75946;PMS5003;64628;50.104;14.614;2023-04-24T05:23:14;5;5;
75946;PMS5003;64628;50.104;14.614;2023-04-24T05:25:39;6;5;
75946;PMS5003;64628;50.104;14.614;2023-04-24T05:28:04;7;6;
75946;PMS5003;64628;50.104;14.614;2023-04-24T05:30:30;8;6;
75946;PMS5003;64628;50.104;14.614;2023-04-24T05:32:55;6;6;
75946;PMS5003;64628;50.104;14.614;2023-04-24T05:35:20;7;7;
75946;PMS5003;64628;50.104;14.614;2023-04-24T05:37:45;10;9;
75946;PMS5003;64628;50.104;14.614;2023-04-24T05:40:11;6;6;
75946;PMS5003;64628;50.104;14.614;2023-04-24T05:42:36;6;6;
75946;PMS5003;64628;50.104;14.614;2023-04-24T05:45:02;6;5;
75946;PMS5003;64628;50.104;14.614;2023-04-24T05:47:27;8;8;
75946;PMS5003;64628;50.104;14.614;2023-04-24T05:49:52;6;6;
75946;PMS5003;64628;50.104;14.614;2023-04-24T05:52:18;7;6;
75946;PMS5003;64628;50.104;14.614;2023-04-24T05:54:43;7;7;
75946;PMS5003;64628;50.104;14.614;2023-04-24T05:57:09;16;15;
75946;PMS5003;64628;50.104;14.614;2023-04-24T05:59:36;10;7;
75946;PMS5003;64628;50.104;14.614;2023-04-24T06:01:59;9;9;
75946;PMS5003;64628;50.104;14.614;2023-04-24T06:04:24;18;17;
75946;PMS5003;64628;50.104;14.614;2023-04-24T06:06:49;6;6;
75946;PMS5003;64628;50.104;14.614;2023-04-24T06:09:15;14;12;
75946;PMS5003;64628;50.104;14.614;2023-04-24T06:11:40;5;5;
75946;PMS5003;64628;50.104;14.614;2023-04-24T06:14:06;7;7;
75946;PMS5003;64628;50.104;14.614;2023-04-24T06:16:31;6;6;
75946;PMS5003;64628;50.104;14.614;2023-04-24T06:18:56;7;6;
75946;PMS5003;64628;50.104;14.614;2023-04-24T06:21:21;9;9;
75946;PMS5003;64628;50.104;14.614;2023-04-24T06:23:47;7;6;
75946;PMS5003;64628;50.104;14.614;2023-04-24T06:26:12;14;10;
75946;PMS5003;64628;50.104;14.614;2023-04-24T06:28:38;6;6;
75946;PMS5003;64628;50.104;14.614;2023-04-24T06:31:03;8;7;
75946;PMS5003;64628;50.104;14.614;2023-04-24T06:33:28;9;6;
75946;PMS5003;64628;50.104;14.614;2023-04-24T06:35:54;7;7;
75946;PMS5003;64628;50.104;14.614;2023-04-24T06:38:19;10;9;
75946;PMS5003;64628;50.104;14.614;2023-04-24T06:40:45;10;7;
75946;PMS5003;64628;50.104;14.614;2023-04-24T06:43:10;9;8;
75946;PMS5003;64628;50.104;14.614;2023-04-24T06:45:35;7;7;
75946;PMS5003;64628;50.104;14.614;2023-04-24T06:48:00;7;7;
75946;PMS5003;64628;50.104;14.614;2023-04-24T06:50:26;7;6;
75946;PMS5003;64628;50.104;14.614;2023-04-24T06:52:51;12;8;
75946;PMS5003;64628;50.104;14.614;2023-04-24T06:55:17;7;7;
75946;PMS5003;64628;50.104;14.614;2023-04-24T06:57:42;11;9;
75946;PMS5003;64628;50.104;14.614;2023-04-24T07:00:07;8;8;
75946;PMS5003;64628;50.104;14.614;2023-04-24T07:02:32;7;7;
75946;PMS5003;64628;50.104;14.614;2023-04-24T07:04:58;12;8;
75946;PMS5003;64628;50.104;14.614;2023-04-24T07:07:23;9;9;
75946;PMS5003;64628;50.104;14.614;2023-04-24T07:09:49;12;12;
75946;PMS5003;64628;50.104;14.614;2023-04-24T07:12:14;15;13;
75946;PMS5003;64628;50.104;14.614;2023-04-24T07:14:39;12;11;
75946;PMS5003;64628;50.104;14.614;2023-04-24T07:17:05;12;12;
75946;PMS5003;64628;50.104;14.614;2023-04-24T07:19:31;11;9;
75946;PMS5003;64628;50.104;14.614;2023-04-24T07:21:56;17;16;
75946;PMS5003;64628;50.104;14.614;2023-04-24T07:24:22;9;7;
75946;PMS5003;64628;50.104;14.614;2023-04-24T07:26:47;11;11;
75946;PMS5003;64628;50.104;14.614;2023-04-24T07:29:12;8;8;
75946;PMS5003;64628;50.104;14.614;2023-04-24T07:31:38;14;11;
75946;PMS5003;64628;50.104;14.614;2023-04-24T07:34:03;13;9;
75946;PMS5003;64628;50.104;14.614;2023-04-24T07:36:28;9;9;
75946;PMS5003;64628;50.104;14.614;2023-04-24T07:38:54;12;9;
75946;PMS5003;64628;50.104;14.614;2023-04-24T07:41:19;12;12;
75946;PMS5003;64628;50.104;14.614;2023-04-24T07:43:44;11;9;
75946;PMS5003;64628;50.104;14.614;2023-04-24T07:46:09;14;10;
75946;PMS5003;64628;50.104;14.614;2023-04-24T07:48:35;16;14;
75946;PMS5003;64628;50.104;14.614;2023-04-24T07:51:00;13;9;
75946;PMS5003;64628;50.104;14.614;2023-04-24T07:53:26;7;7;
75946;PMS5003;64628;50.104;14.614;2023-04-24T07:55:51;12;10;
75946;PMS5003;64628;50.104;14.614;2023-04-24T07:58:17;14;13;
75946;PMS5003;64628;50.104;14.614;2023-04-24T08:00:43;18;18;
75946;PMS5003;64628;50.104;14.614;2023-04-24T08:03:08;12;12;
75946;PMS5003;64628;50.104;14.614;2023-04-24T08:05:33;9;9;
75946;PMS5003;64628;50.104;14.614;2023-04-24T08:07:59;6;6;
75946;PMS5003;64628;50.104;14.614;2023-04-24T08:10:24;12;12;
75946;PMS5003;64628;50.104;14.614;2023-04-24T08:12:49;8;8;
75946;PMS5003;64628;50.104;14.614;2023-04-24T08:15:15;8;8;
75946;PMS5003;64628;50.104;14.614;2023-04-24T08:17:40;8;8;
75946;PMS5003;64628;50.104;14.614;2023-04-24T08:20:06;9;9;
75946;PMS5003;64628;50.104;14.614;2023-04-24T08:22:31;7;7;
75946;PMS5003;64628;50.104;14.614;2023-04-24T08:24:57;10;8;
75946;PMS5003;64628;50.104;14.614;2023-04-24T08:27:22;11;11;
75946;PMS5003;64628;50.104;14.614;2023-04-24T08:29:48;8;8;
75946;PMS5003;64628;50.104;14.614;2023-04-24T08:32:13;8;8;
75946;PMS5003;64628;50.104;14.614;2023-04-24T08:34:39;14;13;
75946;PMS5003;64628;50.104;14.614;2023-04-24T08:37:04;12;12;
75946;PMS5003;64628;50.104;14.614;2023-04-24T08:39:29;9;9;
75946;PMS5003;64628;50.104;14.614;2023-04-24T08:41:55;12;9;
75946;PMS5003;64628;50.104;14.614;2023-04-24T08:44:20;11;9;
75946;PMS5003;64628;50.104;14.614;2023-04-24T08:46:45;9;9;
75946;PMS5003;64628;50.104;14.614;2023-04-24T08:49:11;8;8;
75946;PMS5003;64628;50.104;14.614;2023-04-24T08:51:36;9;8;
75946;PMS5003;64628;50.104;14.614;2023-04-24T08:54:01;12;9;
75946;PMS5003;64628;50.104;14.614;2023-04-24T08:56:26;9;9;
75946;PMS5003;64628;50.104;14.614;2023-04-24T08:58:51;17;15;
75946;PMS5003;64628;50.104;14.614;2023-04-24T09:01:17;9;9;
75946;PMS5003;64628;50.104;14.614;2023-04-24T09:03:42;21;21;
75946;PMS5003;64628;50.104;14.614;2023-04-24T09:06:07;32;31;
75946;PMS5003;64628;50.104;14.614;2023-04-24T09:08:32;28;28;
75946;PMS5003;64628;50.104;14.614;2023-04-24T09:10:58;24;22;
75946;PMS5003;64628;50.104;14.614;2023-04-24T09:13:24;29;28;
75946;PMS5003;64628;50.104;14.614;2023-04-24T09:15:49;24;24;
75946;PMS5003;64628;50.104;14.614;2023-04-24T09:18:15;27;24;
75946;PMS5003;64628;50.104;14.614;2023-04-24T09:23:05;26;25;
75946;PMS5003;64628;50.104;14.614;2023-04-24T09:25:31;25;25;
75946;PMS5003;64628;50.104;14.614;2023-04-24T09:27:59;34;34;
75946;PMS5003;64628;50.104;14.614;2023-04-24T09:30:22;13;7;
75946;PMS5003;64628;50.104;14.614;2023-04-24T09:32:47;8;8;
75946;PMS5003;64628;50.104;14.614;2023-04-24T09:35:13;10;9;
75946;PMS5003;64628;50.104;14.614;2023-04-24T09:37:38;6;5;
75946;PMS5003;64628;50.104;14.614;2023-04-24T09:40:08;8;6;
75946;PMS5003;64628;50.104;14.614;2023-04-24T09:42:28;7;6;
75946;PMS5003;64628;50.104;14.614;2023-04-24T09:44:53;6;6;
75946;PMS5003;64628;50.104;14.614;2023-04-24T09:47:19;6;6;
75946;PMS5003;64628;50.104;14.614;2023-04-24T09:49:44;8;7;
75946;PMS5003;64628;50.104;14.614;2023-04-24T09:52:10;8;7;
75946;PMS5003;64628;50.104;14.614;2023-04-24T09:54:35;10;9;
75946;PMS5003;64628;50.104;14.614;2023-04-24T09:57:00;9;8;
75946;PMS5003;64628;50.104;14.614;2023-04-24T09:59:25;6;6;
75946;PMS5003;64628;50.104;14.614;2023-04-24T10:01:50;5;5;
75946;PMS5003;64628;50.104;14.614;2023-04-24T10:04:16;9;9;
75946;PMS5003;64628;50.104;14.614;2023-04-24T10:06:41;43;43;
75946;PMS5003;64628;50.104;14.614;2023-04-24T10:09:07;11;11;
75946;PMS5003;64628;50.104;14.614;2023-04-24T10:11:32;11;6;
75946;PMS5003;64628;50.104;14.614;2023-04-24T10:13:57;10;9;
75946;PMS5003;64628;50.104;14.614;2023-04-24T10:16:23;10;6;
75946;PMS5003;64628;50.104;14.614;2023-04-24T10:18:48;9;9;
75946;PMS5003;64628;50.104;14.614;2023-04-24T10:21:13;9;9;
75946;PMS5003;64628;50.104;14.614;2023-04-24T10:23:38;10;10;
75946;PMS5003;64628;50.104;14.614;2023-04-24T10:26:03;11;11;
75946;PMS5003;64628;50.104;14.614;2023-04-24T10:28:28;8;7;
75946;PMS5003;64628;50.104;14.614;2023-04-24T10:30:53;15;15;
75946;PMS5003;64628;50.104;14.614;2023-04-24T10:33:19;17;17;
75946;PMS5003;64628;50.104;14.614;2023-04-24T10:35:45;9;9;
75946;PMS5003;64628;50.104;14.614;2023-04-24T10:38:11;9;8;
75946;PMS5003;64628;50.104;14.614;2023-04-24T10:40:35;12;10;
75946;PMS5003;64628;50.104;14.614;2023-04-24T10:43:02;9;9;
75946;PMS5003;64628;50.104;14.614;2023-04-24T10:45:25;11;9;
75946;PMS5003;64628;50.104;14.614;2023-04-24T10:47:51;8;8;
75946;PMS5003;64628;50.104;14.614;2023-04-24T10:50:15;8;6;
75946;PMS5003;64628;50.104;14.614;2023-04-24T10:52:45;6;6;
75946;PMS5003;64628;50.104;14.614;2023-04-24T10:55:06;7;7;
75946;PMS5003;64628;50.104;14.614;2023-04-24T10:57:31;9;8;
75946;PMS5003;64628;50.104;14.614;2023-04-24T11:02:31;8;6;
75946;PMS5003;64628;50.104;14.614;2023-04-24T11:04:46;11;9;
75946;PMS5003;64628;50.104;14.614;2023-04-24T11:07:11;8;7;
75946;PMS5003;64628;50.104;14.614;2023-04-24T11:09:36;10;7;
75946;PMS5003;64628;50.104;14.614;2023-04-24T11:12:03;6;6;
75946;PMS5003;64628;50.104;14.614;2023-04-24T11:14:26;7;6;
75946;PMS5003;64628;50.104;14.614;2023-04-24T11:16:52;5;5;
75946;PMS5003;64628;50.104;14.614;2023-04-24T11:19:20;9;8;
75946;PMS5003;64628;50.104;14.614;2023-04-24T11:21:42;7;6;
75946;PMS5003;64628;50.104;14.614;2023-04-24T11:26:32;6;6;
75946;PMS5003;64628;50.104;14.614;2023-04-24T11:29:05;5;5;
75946;PMS5003;64628;50.104;14.614;2023-04-24T11:33:47;4;4;
75946;PMS5003;64628;50.104;14.614;2023-04-24T11:36:13;3;3;
75946;PMS5003;64628;50.104;14.614;2023-04-24T11:38:38;4;3;
75946;PMS5003;64628;50.104;14.614;2023-04-24T11:41:03;2;2;
75946;PMS5003;64628;50.104;14.614;2023-04-24T11:43:28;3;3;
75946;PMS5003;64628;50.104;14.614;2023-04-24T11:45:53;3;3;
75946;PMS5003;64628;50.104;14.614;2023-04-24T11:48:18;3;2;
75946;PMS5003;64628;50.104;14.614;2023-04-24T11:50:46;2;2;
75946;PMS5003;64628;50.104;14.614;2023-04-24T11:53:08;3;3;
75946;PMS5003;64628;50.104;14.614;2023-04-24T11:55:33;2;2;
75946;PMS5003;64628;50.104;14.614;2023-04-24T11:57:59;3;3;
75946;PMS5003;64628;50.104;14.614;2023-04-24T12:00:24;2;2;
75946;PMS5003;64628;50.104;14.614;2023-04-24T12:02:48;4;3;
75946;PMS5003;64628;50.104;14.614;2023-04-24T12:07:40;3;2;
75946;PMS5003;64628;50.104;14.614;2023-04-24T12:10:04;2;2;
75946;PMS5003;64628;50.104;14.614;2023-04-24T12:12:28;4;2;
75946;PMS5003;64628;50.104;14.614;2023-04-24T12:14:54;2;2;
75946;PMS5003;64628;50.104;14.614;2023-04-24T12:17:23;3;3;
75946;PMS5003;64628;50.104;14.614;2023-04-24T12:19:45;2;2;
75946;PMS5003;64628;50.104;14.614;2023-04-24T12:22:08;4;3;
75946;PMS5003;64628;50.104;14.614;2023-04-24T12:24:33;6;5;
75946;PMS5003;64628;50.104;14.614;2023-04-24T12:26:58;4;2;
75946;PMS5003;64628;50.104;14.614;2023-04-24T12:29:24;5;4;
75946;PMS5003;64628;50.104;14.614;2023-04-24T12:31:49;3;3;
75946;PMS5003;64628;50.104;14.614;2023-04-24T12:34:17;3;3;
75946;PMS5003;64628;50.104;14.614;2023-04-24T12:36:39;3;3;
75946;PMS5003;64628;50.104;14.614;2023-04-24T12:41:30;4;4;
75946;PMS5003;64628;50.104;14.614;2023-04-24T12:43:54;2;2;
75946;PMS5003;64628;50.104;14.614;2023-04-24T12:46:20;8;4;
75946;PMS5003;64628;50.104;14.614;2023-04-24T12:48:45;2;2;
75946;PMS5003;64628;50.104;14.614;2023-04-24T12:51:10;9;8;
75946;PMS5003;64628;50.104;14.614;2023-04-24T12:53:35;19;17;
75946;PMS5003;64628;50.104;14.614;2023-04-24T12:56:00;79;77;
75946;PMS5003;64628;50.104;14.614;2023-04-24T12:58:25;77;77;
75946;PMS5003;64628;50.104;14.614;2023-04-24T13:00:51;3;3;
75946;PMS5003;64628;50.104;14.614;2023-04-24T13:03:16;6;3;
75946;PMS5003;64628;50.104;14.614;2023-04-24T13:05:42;7;6;
75946;PMS5003;64628;50.104;14.614;2023-04-24T13:08:07;5;5;
75946;PMS5003;64628;50.104;14.614;2023-04-24T13:10:32;3;3;
75946;PMS5003;64628;50.104;14.614;2023-04-24T13:12:57;3;2;
75946;PMS5003;64628;50.104;14.614;2023-04-24T13:15:22;6;2;
75946;PMS5003;64628;50.104;14.614;2023-04-24T13:17:48;5;5;
75946;PMS5003;64628;50.104;14.614;2023-04-24T13:20:14;1;1;
75946;PMS5003;64628;50.104;14.614;2023-04-24T13:22:39;3;2;
75946;PMS5003;64628;50.104;14.614;2023-04-24T13:25:05;3;2;
75946;PMS5003;64628;50.104;14.614;2023-04-24T13:27:30;6;4;
75946;PMS5003;64628;50.104;14.614;2023-04-24T13:29:55;2;2;
75946;PMS5003;64628;50.104;14.614;2023-04-24T13:32:20;3;3;
75946;PMS5003;64628;50.104;14.614;2023-04-24T13:34:46;3;3;
75946;PMS5003;64628;50.104;14.614;2023-04-24T13:37:11;4;4;
75946;PMS5003;64628;50.104;14.614;2023-04-24T13:39:36;4;4;
75946;PMS5003;64628;50.104;14.614;2023-04-24T13:42:01;4;4;
75946;PMS5003;64628;50.104;14.614;2023-04-24T13:44:26;4;4;
75946;PMS5003;64628;50.104;14.614;2023-04-24T13:46:53;4;4;
75946;PMS5003;64628;50.104;14.614;2023-04-24T13:49:17;6;4;
75946;PMS5003;64628;50.104;14.614;2023-04-24T13:51:42;4;4;
75946;PMS5003;64628;50.104;14.614;2023-04-24T13:54:07;4;3;
75946;PMS5003;64628;50.104;14.614;2023-04-24T13:56:33;4;4;
75946;PMS5003;64628;50.104;14.614;2023-04-24T13:58:58;5;4;
75946;PMS5003;64628;50.104;14.614;2023-04-24T14:01:23;7;5;
75946;PMS5003;64628;50.104;14.614;2023-04-24T14:03:48;7;5;
75946;PMS5003;64628;50.104;14.614;2023-04-24T14:06:13;4;3;
75946;PMS5003;64628;50.104;14.614;2023-04-24T14:08:39;5;5;
75946;PMS5003;64628;50.104;14.614;2023-04-24T14:11:04;5;5;
75946;PMS5003;64628;50.104;14.614;2023-04-24T14:13:29;5;3;
75946;PMS5003;64628;50.104;14.614;2023-04-24T14:15:54;3;3;
75946;PMS5003;64628;50.104;14.614;2023-04-24T14:18:19;6;6;
75946;PMS5003;64628;50.104;14.614;2023-04-24T14:20:44;4;4;
75946;PMS5003;64628;50.104;14.614;2023-04-24T14:23:09;3;3;
75946;PMS5003;64628;50.104;14.614;2023-04-24T14:25:35;4;3;
75946;PMS5003;64628;50.104;14.614;2023-04-24T14:28:00;2;2;
75946;PMS5003;64628;50.104;14.614;2023-04-24T14:30:25;4;2;
75946;PMS5003;64628;50.104;14.614;2023-04-24T14:32:50;3;3;
75946;PMS5003;64628;50.104;14.614;2023-04-24T14:35:15;3;3;
75946;PMS5003;64628;50.104;14.614;2023-04-24T14:37:40;3;3;
75946;PMS5003;64628;50.104;14.614;2023-04-24T14:40:06;3;3;
75946;PMS5003;64628;50.104;14.614;2023-04-24T14:42:31;3;3;
75946;PMS5003;64628;50.104;14.614;2023-04-24T14:44:56;5;5;
75946;PMS5003;64628;50.104;14.614;2023-04-24T14:47:21;3;3;
75946;PMS5003;64628;50.104;14.614;2023-04-24T14:49:46;2;2;
75946;PMS5003;64628;50.104;14.614;2023-04-24T14:52:11;4;4;
75946;PMS5003;64628;50.104;14.614;2023-04-24T14:54:36;3;3;
75946;PMS5003;64628;50.104;14.614;2023-04-24T14:57:02;4;3;
75946;PMS5003;64628;50.104;14.614;2023-04-24T14:59:27;5;3;
75946;PMS5003;64628;50.104;14.614;2023-04-24T15:01:52;4;3;
75946;PMS5003;64628;50.104;14.614;2023-04-24T15:04:17;3;3;
75946;PMS5003;64628;50.104;14.614;2023-04-24T15:06:42;3;3;
75946;PMS5003;64628;50.104;14.614;2023-04-24T15:09:07;7;5;
75946;PMS5003;64628;50.104;14.614;2023-04-24T15:11:33;7;5;
75946;PMS5003;64628;50.104;14.614;2023-04-24T15:13:58;2;2;
75946;PMS5003;64628;50.104;14.614;2023-04-24T15:16:23;12;12;
75946;PMS5003;64628;50.104;14.614;2023-04-24T15:18:49;13;13;
75946;PMS5003;64628;50.104;14.614;2023-04-24T15:21:14;15;14;
75946;PMS5003;64628;50.104;14.614;2023-04-24T15:23:39;9;9;
75946;PMS5003;64628;50.104;14.614;2023-04-24T15:26:04;6;6;
75946;PMS5003;64628;50.104;14.614;2023-04-24T15:28:29;7;7;
75946;PMS5003;64628;50.104;14.614;2023-04-24T15:30:54;7;7;
75946;PMS5003;64628;50.104;14.614;2023-04-24T15:33:19;12;10;
75946;PMS5003;64628;50.104;14.614;2023-04-24T15:35:45;16;16;
75946;PMS5003;64628;50.104;14.614;2023-04-24T15:38:10;4;4;
75946;PMS5003;64628;50.104;14.614;2023-04-24T15:40:35;4;4;
75946;PMS5003;64628;50.104;14.614;2023-04-24T15:43:00;5;5;
75946;PMS5003;64628;50.104;14.614;2023-04-24T15:45:25;5;5;
75946;PMS5003;64628;50.104;14.614;2023-04-24T15:47:51;4;3;
75946;PMS5003;64628;50.104;14.614;2023-04-24T15:50:16;4;4;
75946;PMS5003;64628;50.104;14.614;2023-04-24T15:52:41;3;3;
75946;PMS5003;64628;50.104;14.614;2023-04-24T15:55:06;3;3;
75946;PMS5003;64628;50.104;14.614;2023-04-24T15:57:31;4;4;
75946;PMS5003;64628;50.104;14.614;2023-04-24T15:59:56;3;3;
75946;PMS5003;64628;50.104;14.614;2023-04-24T16:02:21;3;3;
75946;PMS5003;64628;50.104;14.614;2023-04-24T16:04:47;3;3;
75946;PMS5003;64628;50.104;14.614;2023-04-24T16:07:12;4;4;
75946;PMS5003;64628;50.104;14.614;2023-04-24T16:09:37;7;5;
75946;PMS5003;64628;50.104;14.614;2023-04-24T16:12:02;3;3;
75946;PMS5003;64628;50.104;14.614;2023-04-24T16:14:27;3;3;
75946;PMS5003;64628;50.104;14.614;2023-04-24T16:16:52;12;9;
75946;PMS5003;64628;50.104;14.614;2023-04-24T16:19:17;6;6;
75946;PMS5003;64628;50.104;14.614;2023-04-24T16:21:43;4;4;
75946;PMS5003;64628;50.104;14.614;2023-04-24T16:24:08;3;3;
75946;PMS5003;64628;50.104;14.614;2023-04-24T16:26:33;8;7;
75946;PMS5003;64628;50.104;14.614;2023-04-24T16:28:58;14;13;